Time;durP1;ratioP1;P1;durP2;ratioP2;P2;SDS_P1;SDS_P2;PMS_P1;PMS_P2;Temp;Humidity;BMP_temperature;BMP_pressure;BME280_temperature;BME280_humidity;BME280_pressure;Samples;Min_cycle;Max_cycle;Signal;HPM_P1;HPM_P2
2022/03/20 00:00:54;;;;;;;16.70;9.05;;;;;;;3.24;100.00;103792.84;4941352;28;20355;-71
2022/03/20 00:03:21;;;;;;;15.40;8.23;;;;;;;3.26;100.00;103784.75;4921682;28;20365;-70
2022/03/20 00:05:47;;;;;;;20.88;9.43;;;;;;;3.17;100.00;103782.66;4944102;28;20035;-70
2022/03/20 00:08:13;;;;;;;15.65;8.38;;;;;;;3.21;100.00;103778.84;4928870;28;20124;-71
2022/03/20 00:10:42;;;;;;;16.67;7.55;;;;;;;3.26;100.00;103774.06;4914593;28;20058;-70
2022/03/20 00:13:09;;;;;;;15.43;8.05;;;;;;;3.15;100.00;103782.72;4930173;28;20445;-71
2022/03/20 00:15:35;;;;;;;11.73;7.88;;;;;;;3.17;100.00;103769.31;4915451;28;20050;-71
2022/03/20 00:18:01;;;;;;;15.60;8.93;;;;;;;3.03;100.00;103768.34;4922464;28;20038;-70
2022/03/20 00:20:26;;;;;;;14.40;8.18;;;;;;;3.08;100.00;103773.38;4914879;28;20082;-71
2022/03/20 00:22:52;;;;;;;17.02;7.93;;;;;;;3.04;100.00;103761.22;4934384;28;20086;-71
2022/03/20 00:25:18;;;;;;;15.95;8.30;;;;;;;3.02;100.00;103760.44;4919530;28;20050;-71
2022/03/20 00:27:44;;;;;;;20.95;9.23;;;;;;;2.93;100.00;103756.53;4931548;28;21202;-70
2022/03/20 00:30:10;;;;;;;20.27;9.15;;;;;;;2.89;100.00;103756.81;4929791;28;20037;-70
2022/03/20 00:32:35;;;;;;;17.13;8.85;;;;;;;2.85;100.00;103753.47;4919612;28;20054;-70
2022/03/20 00:35:01;;;;;;;18.08;8.57;;;;;;;2.81;100.00;103744.81;4926607;28;20053;-71
2022/03/20 00:37:27;;;;;;;19.55;9.55;;;;;;;2.76;100.00;103748.69;4912912;28;20079;-70
2022/03/20 00:39:53;;;;;;;20.48;8.70;;;;;;;2.76;100.00;103732.69;4928127;28;20041;-70
2022/03/20 00:42:19;;;;;;;18.13;8.40;;;;;;;2.80;100.00;103747.53;4913517;28;20984;-71
2022/03/20 00:44:44;;;;;;;14.82;9.02;;;;;;;2.73;100.00;103740.88;4926663;28;20415;-70
2022/03/20 00:47:10;;;;;;;15.63;8.45;;;;;;;2.71;100.00;103745.44;4926895;28;20177;-71
2022/03/20 00:49:36;;;;;;;15.85;9.43;;;;;;;2.68;100.00;103741.16;4918583;28;20514;-70
2022/03/20 00:52:01;;;;;;;15.95;8.90;;;;;;;2.62;100.00;103739.69;4933887;28;20041;-70
2022/03/20 00:54:26;;;;;;;16.77;9.05;;;;;;;2.64;100.00;103728.97;4914672;28;20078;-70
2022/03/20 00:56:52;;;;;;;22.23;9.38;;;;;;;2.65;100.00;103724.50;4932928;28;20483;-71
2022/03/20 00:59:18;;;;;;;17.08;9.00;;;;;;;2.63;100.00;103720.13;4912855;28;20056;-70
2022/03/20 01:01:44;;;;;;;17.33;9.02;;;;;;;2.67;100.00;103712.81;4931701;28;20081;-70
2022/03/20 01:04:10;;;;;;;18.05;8.38;;;;;;;2.62;100.00;103710.41;4921024;28;20711;-70
2022/03/20 01:06:36;;;;;;;20.02;9.35;;;;;;;2.60;100.00;103715.00;4929265;28;20664;-70
2022/03/20 01:09:01;;;;;;;26.30;9.88;;;;;;;2.60;100.00;103716.81;4928205;28;20073;-70
2022/03/20 01:11:27;;;;;;;23.55;11.60;;;;;;;2.53;100.00;103704.81;4911442;28;20165;-70
2022/03/20 01:13:55;;;;;;;18.30;9.60;;;;;;;2.47;100.00;103710.47;4920187;28;20044;-70
2022/03/20 01:16:21;;;;;;;21.17;9.10;;;;;;;2.37;100.00;103702.16;4912672;28;20141;-70
2022/03/20 01:18:47;;;;;;;23.67;9.98;;;;;;;2.32;100.00;103704.25;4929107;28;20046;-70
2022/03/20 01:21:12;;;;;;;16.95;10.35;;;;;;;2.26;100.00;103701.94;4912715;28;20054;-70
2022/03/20 01:23:39;;;;;;;17.65;9.45;;;;;;;2.33;100.00;103692.66;4917489;28;21128;-70
2022/03/20 01:26:04;;;;;;;17.52;8.98;;;;;;;2.32;100.00;103693.59;4914975;28;20031;-70
2022/03/20 01:28:30;;;;;;;13.63;8.73;;;;;;;2.31;100.00;103691.88;4920605;28;20138;-70
2022/03/20 01:30:55;;;;;;;21.25;10.05;;;;;;;2.30;100.00;103688.34;4926995;28;20191;-70
2022/03/20 01:33:21;;;;;;;20.90;9.70;;;;;;;2.25;100.00;103689.59;4914273;28;20054;-70
2022/03/20 01:35:46;;;;;;;24.08;10.23;;;;;;;2.20;100.00;103687.16;4927774;28;23980;-70
2022/03/20 01:38:18;;;;;;;20.70;9.88;;;;;;;2.20;100.00;103679.19;4911701;28;20061;-68
2022/03/20 01:40:44;;;;;;;18.33;10.02;;;;;;;2.10;100.00;103681.50;4934493;28;20034;-69
2022/03/20 01:43:09;;;;;;;18.17;9.88;;;;;;;1.99;100.00;103665.31;4921933;28;22562;-69
2022/03/20 01:45:35;;;;;;;18.00;10.10;;;;;;;2.03;100.00;103673.97;4928284;28;20105;-68
2022/03/20 01:48:00;;;;;;;19.15;10.27;;;;;;;1.99;100.00;103669.78;4927609;28;20307;-69
2022/03/20 01:50:27;;;;;;;20.33;9.98;;;;;;;1.98;100.00;103663.63;4912739;28;20050;-69
2022/03/20 01:52:53;;;;;;;17.33;10.07;;;;;;;1.89;100.00;103650.84;4926088;28;20037;-69
2022/03/20 01:55:21;;;;;;;19.15;9.90;;;;;;;1.85;100.00;103657.28;4888550;28;20050;-69
2022/03/20 01:57:47;;;;;;;27.88;10.98;;;;;;;1.89;100.00;103656.16;4927699;28;20042;-69
2022/03/20 02:00:18;;;;;;;23.42;11.07;;;;;;;1.84;100.00;103647.59;4911280;28;20078;-69
2022/03/20 02:02:44;;;;;;;21.80;10.65;;;;;;;1.80;100.00;103638.09;4935250;28;20042;-68
2022/03/20 02:05:10;;;;;;;27.27;11.45;;;;;;;1.83;100.00;103635.25;4914552;28;20072;-69
2022/03/20 02:07:37;;;;;;;23.05;11.82;;;;;;;1.87;100.00;103637.66;4929419;28;20027;-69
2022/03/20 02:10:07;;;;;;;24.00;11.45;;;;;;;1.83;100.00;103629.94;4926342;28;20059;-69
2022/03/20 02:12:32;;;;;;;29.13;11.48;;;;;;;1.79;100.00;103623.06;4898133;28;20051;-69
2022/03/20 02:15:01;;;;;;;21.70;10.95;;;;;;;1.88;100.00;103617.25;4936175;28;20041;-69
2022/03/20 02:17:30;;;;;;;26.08;11.18;;;;;;;1.92;100.00;103602.81;4919879;28;20054;-69
2022/03/20 02:20:03;;;;;;;24.90;11.48;;;;;;;1.86;100.00;103595.19;4925522;28;20040;-69
2022/03/20 02:22:29;;;;;;;24.00;11.70;;;;;;;1.86;100.00;103600.50;4919396;28;20058;-69
2022/03/20 02:24:55;;;;;;;21.60;10.65;;;;;;;1.88;100.00;103594.16;4926858;28;20030;-69
2022/03/20 02:27:23;;;;;;;23.48;11.45;;;;;;;1.90;100.00;103591.44;4916038;28;20181;-69
2022/03/20 02:29:50;;;;;;;22.05;12.25;;;;;;;1.92;100.00;103592.19;4930224;28;20033;-68
2022/03/20 02:32:17;;;;;;;23.42;11.95;;;;;;;1.86;100.00;103576.59;4923359;28;22685;-69
2022/03/20 02:34:45;;;;;;;24.42;12.63;;;;;;;1.85;100.00;103574.88;4911361;28;20053;-69
2022/03/20 02:37:10;;;;;;;25.95;12.43;;;;;;;1.79;100.00;103565.47;4924716;28;20149;-69
2022/03/20 02:39:36;;;;;;;28.88;13.48;;;;;;;1.89;100.00;103571.94;4910314;28;20046;-69
2022/03/20 02:42:04;;;;;;;22.92;13.48;;;;;;;1.86;100.00;103557.97;4928300;28;20031;-69
2022/03/20 02:45:03;;;;;;;27.02;12.85;;;;;;;1.88;100.00;103558.75;4916873;28;20138;-69
2022/03/20 02:47:30;;;;;;;27.65;12.93;;;;;;;1.90;100.00;103541.78;4925248;28;20116;-68
2022/03/20 02:49:57;;;;;;;29.67;13.50;;;;;;;1.89;100.00;103539.19;4923643;28;20050;-69
2022/03/20 02:52:30;;;;;;;25.30;13.20;;;;;;;1.79;100.00;103549.53;4933808;28;20026;-69
2022/03/20 02:55:00;;;;;;;25.87;13.03;;;;;;;1.79;100.00;103543.34;4928499;28;22523;-69
2022/03/20 02:57:27;;;;;;;26.77;14.50;;;;;;;1.86;100.00;103539.38;4929702;28;20881;-68
2022/03/20 02:59:52;;;;;;;20.77;13.18;;;;;;;1.88;100.00;103526.88;4927232;28;20100;-68
2022/03/20 03:02:18;;;;;;;23.77;13.50;;;;;;;1.71;100.00;103525.19;4912107;28;20790;-68
2022/03/20 03:04:43;;;;;;;26.55;14.05;;;;;;;1.74;100.00;103529.47;4925515;28;20774;-68
2022/03/20 03:07:09;;;;;;;24.77;13.40;;;;;;;1.71;100.00;103529.66;4910942;28;20255;-68
2022/03/20 03:12:19;;;;;;;32.50;14.35;;;;;;;1.74;100.00;103540.09;4893049;28;20058;-68
2022/03/20 03:17:28;;;;;;;30.50;13.60;;;;;;;1.52;100.00;103525.41;4919520;28;20065;-68
2022/03/20 03:19:55;;;;;;;25.08;13.98;;;;;;;1.53;100.00;103524.44;4934704;28;20035;-68
2022/03/20 03:22:20;;;;;;;32.25;15.10;;;;;;;1.53;100.00;103519.13;4928799;28;20598;-68
2022/03/20 03:24:46;;;;;;;29.60;14.93;;;;;;;1.60;100.00;103507.22;4916369;28;20074;-68
2022/03/20 03:27:11;;;;;;;23.48;14.57;;;;;;;1.58;100.00;103509.13;4900490;28;20169;-68
2022/03/20 03:29:37;;;;;;;28.75;15.85;;;;;;;1.58;100.00;103519.75;4909498;28;20065;-68
2022/03/20 03:32:04;;;;;;;26.30;15.52;;;;;;;1.64;100.00;103500.75;4926020;28;20027;-68
2022/03/20 03:37:18;;;;;;;32.90;14.80;;;;;;;1.66;100.00;103506.84;4925090;28;20034;-68
2022/03/20 03:39:44;;;;;;;31.00;15.70;;;;;;;1.64;100.00;103498.09;4911324;28;20058;-68
2022/03/20 03:42:10;;;;;;;29.75;15.30;;;;;;;1.65;100.00;103489.22;4926928;28;20092;-68
2022/03/20 03:44:36;;;;;;;30.85;15.93;;;;;;;1.61;100.00;103489.47;4910808;28;20491;-68
2022/03/20 03:47:01;;;;;;;30.75;15.55;;;;;;;1.53;100.00;103481.94;4927301;28;20040;-67
2022/03/20 03:49:27;;;;;;;25.13;15.90;;;;;;;1.52;100.00;103488.22;4933653;28;20529;-68
2022/03/20 03:51:52;;;;;;;29.88;15.73;;;;;;;1.47;100.00;103492.91;4917806;28;20046;-68
2022/03/20 03:54:18;;;;;;;31.63;15.88;;;;;;;1.40;100.00;103486.25;4925921;28;20034;-67
2022/03/20 03:56:43;;;;;;;30.27;16.00;;;;;;;1.30;100.00;103482.41;4910430;28;20407;-68
2022/03/20 03:59:10;;;;;;;27.95;15.98;;;;;;;1.38;100.00;103481.03;4924772;28;20031;-68
2022/03/20 04:01:36;;;;;;;29.02;15.13;;;;;;;1.45;100.00;103486.00;4910544;28;20059;-68
2022/03/20 04:04:01;;;;;;;26.63;16.70;;;;;;;1.46;100.00;103477.94;4926142;28;20088;-67
2022/03/20 04:06:27;;;;;;;30.90;16.63;;;;;;;1.44;100.00;103479.84;4922751;28;20041;-68
2022/03/20 04:08:54;;;;;;;31.05;16.10;;;;;;;1.39;100.00;103460.63;4908672;28;20169;-68
2022/03/20 04:11:20;;;;;;;24.88;15.82;;;;;;;1.35;100.00;103459.97;4932612;28;20042;-67
2022/03/20 04:13:46;;;;;;;33.42;16.58;;;;;;;1.34;100.00;103460.91;4907515;28;26443;-67
2022/03/20 04:16:11;;;;;;;28.65;18.05;;;;;;;1.38;100.00;103467.75;4932290;28;20038;-67
2022/03/20 04:18:37;;;;;;;26.05;16.10;;;;;;;1.33;100.00;103451.22;4914114;28;20046;-68
2022/03/20 04:21:04;;;;;;;32.25;17.15;;;;;;;1.31;100.00;103450.47;4925156;28;20125;-68
2022/03/20 04:26:21;;;;;;;33.58;16.70;;;;;;;1.35;100.00;103443.16;4926641;28;20049;-67
2022/03/20 04:28:47;;;;;;;;;;;;;;;1.40;100.00;103435.78;4920405;28;20471;-68
2022/03/20 04:31:17;;;;;;;35.60;17.17;;;;;;;1.46;100.00;103442.53;4920212;28;19928;-70
2022/03/20 04:33:43;;;;;;;26.23;15.88;;;;;;;1.49;100.00;103437.91;4940083;28;22493;-68
2022/03/20 04:36:09;;;;;;;30.67;17.27;;;;;;;1.52;100.00;103427.09;4911846;28;20081;-68
2022/03/20 04:38:36;;;;;;;26.10;17.33;;;;;;;1.44;100.00;103426.72;4937968;28;20045;-69
2022/03/20 04:41:01;;;;;;;32.08;17.80;;;;;;;1.41;100.00;103432.19;4906820;28;20890;-68
2022/03/20 04:43:27;;;;;;;29.92;17.05;;;;;;;1.37;100.00;103430.63;4934916;28;20046;-68
2022/03/20 04:45:53;;;;;;;31.83;17.27;;;;;;;1.42;100.00;103423.28;4919738;28;20056;-69
2022/03/20 04:59:15;;;;;;;;;;;;;;;1.35;100.00;103404.19;4930205;28;20407;-69
2022/03/20 05:01:40;;;;;;;32.10;16.83;;;;;;;1.45;100.00;103404.50;4934245;28;19929;-68
2022/03/20 05:04:06;;;;;;;35.10;17.33;;;;;;;1.48;100.00;103384.88;4913038;28;20121;-68
2022/03/20 05:06:31;;;;;;;34.85;18.45;;;;;;;1.48;100.00;103391.06;4927796;28;20100;-68
2022/03/20 05:13:19;;;;;;;32.10;17.35;;;;;;;1.55;100.00;103388.88;4920071;28;20074;-68
2022/03/20 05:14:29;;;;;;;33.70;17.30;;;;;;;1.45;100.00;103374.44;4920760;28;20054;-68
2022/03/20 05:16:54;;;;;;;30.75;17.75;;;;;;;1.41;100.00;103373.78;4928556;28;20053;-68
2022/03/20 05:19:20;;;;;;;30.67;18.45;;;;;;;1.44;100.00;103378.91;4911091;28;20622;-68
2022/03/20 05:21:47;;;;;;;31.88;17.73;;;;;;;1.37;100.00;103377.53;4926378;28;20051;-68
2022/03/20 05:24:13;;;;;;;30.13;18.05;;;;;;;1.35;100.00;103374.13;4906722;28;20590;-68
2022/03/20 05:26:39;;;;;;;33.67;18.42;;;;;;;1.25;100.00;103373.81;4927130;28;20038;-68
2022/03/20 05:29:04;;;;;;;29.40;17.77;;;;;;;1.27;100.00;103376.38;4927644;28;20034;-69
2022/03/20 05:31:30;;;;;;;28.27;17.70;;;;;;;1.25;100.00;103357.88;4911170;28;20701;-68
2022/03/20 05:33:56;;;;;;;32.33;20.40;;;;;;;1.25;100.00;103360.53;4926563;28;20053;-68
2022/03/20 05:36:21;;;;;;;31.60;19.67;;;;;;;1.27;100.00;103361.31;4924337;28;20080;-68
2022/03/20 05:38:47;;;;;;;34.03;20.25;;;;;;;1.24;100.00;103355.31;4942774;28;20042;-68
2022/03/20 05:43:56;;;;;;;31.70;19.65;;;;;;;1.17;100.00;103366.28;4928076;28;20085;-68
2022/03/20 05:46:21;;;;;;;27.45;17.50;;;;;;;1.18;100.00;103361.84;4919602;28;20102;-68
2022/03/20 05:48:47;;;;;;;37.47;19.42;;;;;;;1.13;100.00;103363.91;4928292;28;20038;-68
2022/03/20 05:51:15;;;;;;;31.67;19.67;;;;;;;1.03;100.00;103368.91;4944512;28;20030;-68
2022/03/20 05:53:41;;;;;;;31.90;20.35;;;;;;;1.04;100.00;103359.97;4912732;28;20054;-68
2022/03/20 05:58:50;;;;;;;34.45;20.63;;;;;;;1.03;100.00;103365.38;4913227;28;20050;-68
2022/03/20 06:01:16;;;;;;;31.15;19.02;;;;;;;1.05;100.00;103355.50;4927064;28;20626;-68
2022/03/20 06:03:42;;;;;;;37.30;20.75;;;;;;;1.14;100.00;103365.63;4917503;28;20077;-68
2022/03/20 06:06:08;;;;;;;33.97;19.98;;;;;;;1.36;100.00;103354.56;4927403;28;20050;-69
2022/03/20 06:08:35;;;;;;;36.17;20.77;;;;;;;1.66;100.00;103352.75;4920636;28;20050;-68
2022/03/20 06:11:01;;;;;;;33.90;20.45;;;;;;;1.89;100.00;103358.44;4932213;28;20030;-68
2022/03/20 06:13:28;;;;;;;35.85;19.48;;;;;;;2.03;100.00;103358.44;4940535;28;20026;-68
2022/03/20 06:15:55;;;;;;;35.80;20.00;;;;;;;2.17;100.00;103352.28;4918833;28;20089;-68
2022/03/20 06:18:20;;;;;;;33.30;19.23;;;;;;;2.31;100.00;103354.06;4943022;28;20222;-68
2022/03/20 06:20:46;;;;;;;31.70;19.70;;;;;;;2.49;100.00;103347.59;4915388;28;20533;-68
2022/03/20 06:23:11;;;;;;;35.85;19.52;;;;;;;2.57;100.00;103361.25;4926849;28;20086;-68
2022/03/20 06:25:37;;;;;;;49.35;20.40;;;;;;;2.80;100.00;103350.91;4912853;28;20670;-68
2022/03/20 06:28:03;;;;;;;30.33;18.45;;;;;;;3.03;100.00;103342.25;4928230;28;20057;-68
2022/03/20 06:30:32;;;;;;;35.30;19.00;;;;;;;3.09;100.00;103341.84;4911290;28;20042;-68
2022/03/20 06:32:58;;;;;;;33.50;19.40;;;;;;;3.31;100.00;103346.56;4919358;28;23601;-68
2022/03/20 06:35:23;;;;;;;35.28;19.90;;;;;;;3.63;100.00;103343.53;4927013;28;20038;-69
2022/03/20 06:37:55;;;;;;;34.92;19.10;;;;;;;3.70;100.00;103331.47;4912190;28;20057;-68
2022/03/20 06:40:21;;;;;;;30.95;19.85;;;;;;;3.84;100.00;103322.50;4928072;28;20042;-68
2022/03/20 06:42:47;;;;;;;32.13;20.05;;;;;;;3.85;100.00;103344.69;4913189;28;20113;-69
2022/03/20 06:45:14;;;;;;;30.48;18.83;;;;;;;4.01;100.00;103335.50;4926690;28;20030;-68
2022/03/20 06:47:41;;;;;;;30.52;18.77;;;;;;;4.16;100.00;103322.88;4919453;28;20061;-69
2022/03/20 06:50:08;;;;;;;35.92;20.15;;;;;;;4.46;100.00;103325.16;4927202;28;20057;-69
2022/03/20 06:52:34;;;;;;;33.15;18.73;;;;;;;4.47;100.00;103320.66;4904133;28;20055;-69
2022/03/20 06:55:01;;;;;;;28.83;19.48;;;;;;;4.40;100.00;103314.09;4928220;28;20030;-68
2022/03/20 06:57:27;;;;;;;30.85;19.25;;;;;;;4.72;100.00;103314.38;4926832;28;20394;-69
2022/03/20 06:59:55;;;;;;;29.60;19.38;;;;;;;4.71;100.00;103318.03;4911440;28;20053;-69
2022/03/20 07:02:21;;;;;;;31.42;18.70;;;;;;;4.95;100.00;103318.88;4926683;28;20035;-69
2022/03/20 07:04:47;;;;;;;30.17;18.20;;;;;;;5.03;100.00;103327.13;4927931;28;20086;-69
2022/03/20 07:07:15;;;;;;;28.75;18.42;;;;;;;5.06;100.00;103311.84;4926243;28;20157;-69
2022/03/20 07:09:41;;;;;;;34.63;20.00;;;;;;;5.17;98.42;103314.56;4913046;28;20197;-69
2022/03/20 07:12:08;;;;;;;31.75;19.15;;;;;;;5.32;96.82;103312.53;4924470;28;20500;-69
2022/03/20 07:14:34;;;;;;;29.13;18.08;;;;;;;5.19;92.66;103302.75;4906088;28;20550;-70
2022/03/20 07:17:03;;;;;;;32.33;19.63;;;;;;;5.20;92.73;103295.63;4916964;28;20058;-69
2022/03/20 07:19:30;;;;;;;29.98;18.00;;;;;;;5.18;91.33;103284.19;4932480;28;23867;-69
2022/03/20 07:21:55;;;;;;;30.42;17.60;;;;;;;5.44;88.44;103301.75;4911641;28;20050;-69
2022/03/20 07:24:21;;;;;;;31.00;18.67;;;;;;;5.56;87.10;103291.06;4925893;28;20053;-70
2022/03/20 07:29:30;;;;;;;;;;;;;;;5.32;89.62;103292.00;4925742;28;20117;-70
2022/03/20 07:32:06;;;;;;;31.52;17.80;;;;;;;4.97;92.82;103282.19;4910641;28;19976;-70
2022/03/20 07:34:36;;;;;;;32.42;18.05;;;;;;;5.16;91.55;103280.78;4932918;28;20164;-70
2022/03/20 07:37:02;;;;;;;30.50;17.77;;;;;;;5.40;86.93;103278.03;4911529;28;20061;-70
2022/03/20 07:39:28;;;;;;;35.42;19.52;;;;;;;5.24;86.50;103275.72;4925236;28;20031;-69
2022/03/20 07:41:53;;;;;;;30.52;19.05;;;;;;;5.25;93.69;103270.22;4924694;28;20069;-69
2022/03/20 07:44:19;;;;;;;31.17;18.13;;;;;;;5.38;85.05;103254.09;4909472;28;23663;-69
2022/03/20 07:46:44;;;;;;;26.73;18.05;;;;;;;5.85;77.76;103256.66;4925847;28;20125;-69
2022/03/20 07:49:10;;;;;;;29.13;18.35;;;;;;;5.79;73.57;103255.34;4911288;28;20064;-68
2022/03/20 07:51:35;;;;;;;32.30;20.67;;;;;;;5.28;80.20;103245.09;4923779;28;20030;-68
2022/03/20 07:54:01;;;;;;;31.33;19.00;;;;;;;5.85;77.88;103238.78;4909855;28;20775;-68
2022/03/20 07:56:28;;;;;;;30.98;18.60;;;;;;;6.59;71.26;103235.47;4925337;28;20038;-69
2022/03/20 07:58:56;;;;;;;32.17;19.35;;;;;;;6.91;65.00;103241.66;4920404;28;20035;-68
2022/03/20 08:01:22;;;;;;;31.85;18.52;;;;;;;6.76;65.36;103236.75;4912764;28;20054;-68
2022/03/20 08:03:48;;;;;;;27.85;19.08;;;;;;;7.14;64.29;103241.53;4924854;28;20061;-68
2022/03/20 08:06:15;;;;;;;30.73;17.58;;;;;;;7.28;61.54;103237.66;4906657;28;20069;-69
2022/03/20 08:08:41;;;;;;;31.17;18.27;;;;;;;7.62;60.97;103235.56;4911412;28;21560;-68
2022/03/20 08:11:08;;;;;;;30.42;18.92;;;;;;;7.76;60.96;103227.16;4911282;28;20051;-69
2022/03/20 08:13:34;;;;;;;30.40;18.50;;;;;;;7.35;59.33;103225.41;4927757;28;20093;-69
2022/03/20 08:16:00;;;;;;;31.88;18.77;;;;;;;7.68;59.43;103213.56;4912036;28;31470;-68
2022/03/20 08:18:26;;;;;;;28.85;18.58;;;;;;;8.07;58.00;103219.03;4926155;28;20035;-68
2022/03/20 08:20:51;;;;;;;34.80;19.60;;;;;;;8.07;56.50;103225.28;4927916;28;20034;-69
2022/03/20 08:23:17;;;;;;;28.77;19.25;;;;;;;7.89;57.32;103214.31;4913616;28;21149;-68
2022/03/20 08:25:42;;;;;;;27.13;18.58;;;;;;;8.20;55.66;103206.19;4927740;28;20042;-68
2022/03/20 08:28:09;;;;;;;27.65;19.15;;;;;;;8.51;55.39;103208.81;4915190;28;20046;-69
2022/03/20 08:30:36;;;;;;;28.05;19.60;;;;;;;8.54;54.67;103195.94;4928800;28;20057;-68
2022/03/20 08:33:02;;;;;;;28.48;19.27;;;;;;;8.33;54.81;103182.63;4913301;28;20051;-68
2022/03/20 08:35:27;;;;;;;31.27;20.08;;;;;;;8.31;55.34;103194.47;4931095;28;20045;-69
2022/03/20 08:37:53;;;;;;;32.85;19.17;;;;;;;8.31;55.81;103187.25;4923281;28;20034;-70
2022/03/20 08:40:20;;;;;;;25.75;18.42;;;;;;;8.33;54.50;103166.50;4930763;28;20030;-68
2022/03/20 08:42:54;;;;;;;32.03;20.10;;;;;;;8.71;54.58;103172.88;4920814;28;23800;-68
2022/03/20 08:45:21;;;;;;;29.02;20.15;;;;;;;8.26;54.77;103160.00;4921494;28;20976;-68
2022/03/20 08:47:47;;;;;;;30.95;19.92;;;;;;;8.34;54.63;103157.44;4928037;28;23044;-70
2022/03/20 08:50:14;;;;;;;30.88;20.48;;;;;;;8.68;54.69;103132.84;4904839;28;20090;-68
2022/03/20 08:52:42;;;;;;;27.63;19.63;;;;;;;8.83;53.48;103144.84;4935739;28;20038;-69
2022/03/20 08:55:11;;;;;;;33.00;19.65;;;;;;;8.88;53.45;103144.41;4914621;28;20410;-68
2022/03/20 08:57:44;;;;;;;31.58;20.80;;;;;;;8.82;52.21;103140.47;4929296;28;20066;-68
2022/03/20 09:00:12;;;;;;;31.83;20.50;;;;;;;9.17;52.64;103165.00;4914250;28;20057;-68
2022/03/20 09:02:37;;;;;;;34.70;20.98;;;;;;;9.44;51.83;103146.19;4928144;28;20035;-68
2022/03/20 09:05:06;;;;;;;37.80;22.00;;;;;;;9.62;50.35;103142.66;4929876;28;20428;-68
2022/03/20 09:07:32;;;;;;;31.75;20.48;;;;;;;8.95;49.89;103125.84;4916315;28;20518;-69
2022/03/20 09:09:58;;;;;;;28.77;20.13;;;;;;;9.22;50.17;103136.63;4929893;28;20054;-68
2022/03/20 09:12:24;;;;;;;36.00;21.77;;;;;;;9.22;49.72;103120.50;4920443;28;20069;-68
2022/03/20 09:14:49;;;;;;;34.47;21.27;;;;;;;9.27;49.91;103125.47;4933791;28;20089;-69
2022/03/20 09:19:59;;;;;;;34.97;22.33;;;;;;;9.21;49.11;103102.69;4931168;28;20494;-69
2022/03/20 09:22:27;;;;;;;33.15;21.02;;;;;;;9.24;48.96;103113.16;4900990;28;20066;-69
2022/03/20 09:24:53;;;;;;;36.60;22.23;;;;;;;9.20;48.65;103101.00;4935778;28;20043;-69
2022/03/20 09:27:19;;;;;;;31.38;20.85;;;;;;;9.54;48.83;103108.44;4926513;28;20145;-69
2022/03/20 09:29:44;;;;;;;33.60;21.00;;;;;;;9.18;48.68;103086.84;4912271;28;20181;-68
2022/03/20 09:32:09;;;;;;;36.17;22.80;;;;;;;9.11;48.86;103091.13;4920216;28;20187;-69
2022/03/20 09:34:35;;;;;;;35.55;22.75;;;;;;;9.45;48.34;103098.59;4909407;28;21056;-69
2022/03/20 09:37:01;;;;;;;33.90;22.48;;;;;;;9.15;48.14;103097.88;4927937;28;20046;-69
2022/03/20 09:39:26;;;;;;;34.88;22.70;;;;;;;9.13;48.27;103091.00;4913706;28;20050;-68
2022/03/20 09:41:54;;;;;;;32.55;21.33;;;;;;;9.21;48.65;103078.47;4927933;28;20097;-69
2022/03/20 09:44:24;;;;;;;37.78;21.73;;;;;;;9.66;47.94;103084.88;4909621;28;20719;-69
2022/03/20 09:46:50;;;;;;;33.75;21.70;;;;;;;9.63;47.48;103064.50;4913901;28;20506;-69
2022/03/20 09:49:16;;;;;;;31.85;22.42;;;;;;;9.55;47.61;103080.56;4928138;28;20075;-69
2022/03/20 09:51:43;;;;;;;33.42;21.85;;;;;;;9.87;48.02;103080.06;4910869;28;20263;-68
2022/03/20 09:54:13;;;;;;;40.03;23.58;;;;;;;9.85;46.41;103081.19;4933136;28;20677;-68
2022/03/20 09:56:42;;;;;;;31.65;23.33;;;;;;;9.67;46.02;103076.66;4912123;28;20418;-68
2022/03/20 09:59:08;;;;;;;34.70;22.90;;;;;;;9.11;47.58;103058.00;4935751;28;20043;-69
2022/03/20 10:01:34;;;;;;;37.75;22.98;;;;;;;9.35;46.95;103065.53;4896518;28;20054;-68
2022/03/20 10:04:07;;;;;;;35.25;23.50;;;;;;;9.45;47.63;103066.31;4934891;28;20034;-68
2022/03/20 10:06:35;;;;;;;33.05;22.70;;;;;;;9.85;46.16;103054.28;4912490;28;20629;-69
2022/03/20 10:09:03;;;;;;;33.55;21.73;;;;;;;9.61;46.07;103039.56;4934764;28;20065;-69
2022/03/20 10:11:32;;;;;;;34.63;22.95;;;;;;;9.97;45.85;103044.97;4928017;28;20471;-70
2022/03/20 10:14:24;;;;;;;30.17;21.58;;;;;;;9.94;45.37;103045.28;4903582;28;20047;-70
2022/03/20 10:16:55;;;;;;;34.42;22.92;;;;;;;10.16;44.04;103047.47;4926301;28;20044;-70
2022/03/20 10:19:24;;;;;;;34.60;24.38;;;;;;;10.15;44.41;103032.34;4900048;28;20046;-69
2022/03/20 10:21:57;;;;;;;36.88;23.92;;;;;;;10.21;44.36;103026.31;4926741;28;20121;-69
2022/03/20 10:24:24;;;;;;;34.55;22.85;;;;;;;10.39;43.67;103030.81;4909441;28;20415;-70
2022/03/20 10:27:03;;;;;;;31.15;23.17;;;;;;;10.11;43.48;103030.97;4933969;28;20549;-70
2022/03/20 10:29:30;;;;;;;34.75;23.15;;;;;;;9.93;43.93;103020.22;4911595;28;20409;-70
2022/03/20 10:32:00;;;;;;;36.58;24.42;;;;;;;10.11;44.06;103009.41;4911046;28;20031;-69
2022/03/20 10:34:25;;;;;;;30.75;22.73;;;;;;;10.34;43.82;103014.31;4911804;28;20137;-70
2022/03/20 10:36:51;;;;;;;47.05;23.85;;;;;;;10.41;42.77;102994.66;4926744;28;20085;-70
2022/03/20 10:39:21;;;;;;;34.97;23.73;;;;;;;10.68;43.37;103012.50;4924618;28;20033;-70
2022/03/20 10:41:48;;;;;;;34.88;23.80;;;;;;;10.64;42.96;102992.25;4914721;28;20534;-70
2022/03/20 10:44:17;;;;;;;36.28;24.38;;;;;;;10.70;42.10;102972.72;4943593;28;20026;-70
2022/03/20 10:46:43;;;;;;;35.28;23.90;;;;;;;10.82;42.12;102980.56;4907072;28;20047;-70
2022/03/20 10:49:11;;;;;;;35.53;23.52;;;;;;;10.84;41.65;102973.13;4931295;28;20037;-70
2022/03/20 10:51:41;;;;;;;41.90;24.52;;;;;;;10.70;42.38;102983.50;4914115;28;20054;-70
2022/03/20 10:54:15;;;;;;;33.33;23.77;;;;;;;11.05;44.20;102970.84;4927394;28;20031;-70
2022/03/20 10:56:58;;;;;;;35.38;23.63;;;;;;;11.33;42.69;102948.97;4919012;28;22797;-70
2022/03/20 10:59:25;;;;;;;35.10;22.85;;;;;;;11.36;41.29;102951.34;4930799;28;20030;-71
2022/03/20 11:01:51;;;;;;;36.42;25.17;;;;;;;11.46;41.81;102952.03;4909740;28;20039;-71
2022/03/20 11:04:18;;;;;;;33.63;24.40;;;;;;;11.50;41.57;102934.50;4924898;28;20034;-71
2022/03/20 11:06:46;;;;;;;34.55;24.63;;;;;;;11.38;41.17;102919.66;4923937;28;20046;-71
2022/03/20 11:09:12;;;;;;;34.13;25.23;;;;;;;11.49;42.09;102913.09;4901902;28;20050;-71
2022/03/20 11:11:41;;;;;;;35.95;25.30;;;;;;;11.75;41.04;102888.59;4925465;28;21030;-71
2022/03/20 11:14:06;;;;;;;36.90;24.60;;;;;;;11.87;40.71;102911.59;4912840;28;20615;-71
2022/03/20 11:16:38;;;;;;;36.50;25.52;;;;;;;12.02;41.36;102887.41;4933858;28;20038;-70
2022/03/20 11:19:11;;;;;;;38.17;24.50;;;;;;;12.20;40.54;102879.91;4911806;28;20057;-71
2022/03/20 11:21:39;;;;;;;41.63;25.27;;;;;;;12.24;40.09;102875.00;4926613;28;20244;-71
2022/03/20 11:24:05;;;;;;;34.17;25.20;;;;;;;12.32;39.84;102877.66;4914105;28;20063;-71
2022/03/20 11:26:31;;;;;;;33.15;23.88;;;;;;;11.99;38.98;102877.78;4926458;28;20042;-71
2022/03/20 11:28:59;;;;;;;37.08;25.52;;;;;;;12.51;39.02;102857.50;4930632;28;20479;-71
2022/03/20 11:31:25;;;;;;;34.67;24.48;;;;;;;12.55;38.59;102837.22;4913826;28;20100;-71
2022/03/20 11:33:55;;;;;;;36.85;25.58;;;;;;;12.69;38.18;102828.34;4924922;28;20042;-71
2022/03/20 11:36:20;;;;;;;35.35;24.70;;;;;;;12.31;38.63;102820.09;4910798;28;21263;-71
2022/03/20 11:39:12;;;;;;;35.03;24.85;;;;;;;12.47;39.21;102843.50;4925581;28;20045;-71
2022/03/20 11:41:39;;;;;;;36.80;24.30;;;;;;;12.09;38.49;102847.88;4901047;28;20128;-71
2022/03/20 11:44:10;;;;;;;36.17;26.00;;;;;;;12.11;38.29;102838.59;4924955;28;20068;-71
2022/03/20 11:46:36;;;;;;;37.40;25.58;;;;;;;11.71;39.97;102842.19;4909583;28;20042;-72
2022/03/20 11:49:14;;;;;;;37.33;26.27;;;;;;;11.51;40.76;102846.28;4925955;28;20039;-71